createdAt,value
2016-08-28T00:00:41.798Z,1012.11
2016-08-28T00:01:41.829Z,1012.16
2016-08-28T00:02:41.852Z,1012.14
2016-08-28T00:03:41.879Z,1012.12
2016-08-28T00:04:41.907Z,1012.14
2016-08-28T00:05:41.940Z,1012.09
2016-08-28T00:06:41.962Z,1012.09
2016-08-28T00:08:42.024Z,1012.07
2016-08-28T00:09:42.045Z,1012.03
2016-08-28T00:10:42.079Z,1012.05
2016-08-28T00:11:42.100Z,1012.05
2016-08-28T00:12:42.129Z,1012.06
2016-08-28T00:13:42.155Z,1012.04
2016-08-28T00:14:42.189Z,1012.01
2016-08-28T00:15:42.214Z,1012.01
2016-08-28T00:16:42.245Z,1011.99
2016-08-28T00:17:42.266Z,1011.99
2016-08-28T00:18:42.300Z,1011.98
2016-08-28T00:19:42.322Z,1011.97
2016-08-28T00:20:42.348Z,1011.97
2016-08-28T00:21:42.382Z,1011.98
2016-08-28T00:22:42.404Z,1011.98
2016-08-28T00:24:42.459Z,1011.97
2016-08-28T00:25:42.486Z,1011.97
2016-08-28T00:26:42.514Z,1011.96
2016-08-28T00:27:42.548Z,1011.98
2016-08-28T00:28:42.576Z,1012.01
2016-08-28T00:29:42.597Z,1012.01
2016-08-28T00:30:42.626Z,1012
2016-08-28T00:31:42.652Z,1011.95
2016-08-28T00:32:42.679Z,1011.99
2016-08-28T00:33:42.707Z,1011.98
2016-08-28T00:34:42.734Z,1011.98
2016-08-28T00:35:42.764Z,1012.01
2016-08-28T00:36:42.795Z,1011.97
2016-08-28T00:37:42.819Z,1011.99
2016-08-28T00:38:42.850Z,1011.95
2016-08-28T00:40:42.899Z,1011.93
2016-08-28T00:41:42.928Z,1011.95
2016-08-28T00:42:42.954Z,1011.93
2016-08-28T00:43:42.982Z,1011.91
2016-08-28T00:44:43.010Z,1011.89
2016-08-28T00:45:43.036Z,1011.93
2016-08-28T00:46:43.064Z,1011.92
2016-08-28T00:47:43.091Z,1011.96
2016-08-28T00:48:43.119Z,1011.92
2016-08-28T00:49:43.146Z,1011.91
2016-08-28T00:50:43.176Z,1011.91
2016-08-28T00:51:43.207Z,1011.9
2016-08-28T00:52:43.230Z,1011.92
2016-08-28T00:53:43.259Z,1011.87
2016-08-28T00:55:43.312Z,1011.89
2016-08-28T00:56:43.339Z,1011.88
2016-08-28T00:57:43.368Z,1011.86
2016-08-28T00:58:43.401Z,1011.85
2016-08-28T00:59:43.472Z,1011.82
2016-08-28T01:00:43.449Z,1011.82
2016-08-28T01:01:43.477Z,1011.84
2016-08-28T01:02:43.507Z,1011.79
2016-08-28T01:03:43.537Z,1011.8
2016-08-28T01:04:43.561Z,1011.81
2016-08-28T01:05:43.586Z,1011.8
2016-08-28T01:06:43.620Z,1011.78
2016-08-28T01:07:43.643Z,1011.76
2016-08-28T01:08:43.667Z,1011.75
2016-08-28T01:09:43.696Z,1011.76
2016-08-28T01:10:43.724Z,1011.81
2016-08-28T01:11:43.750Z,1011.78
2016-08-28T01:12:43.779Z,1011.79
2016-08-28T01:13:43.812Z,1011.79
2016-08-28T01:14:43.833Z,1011.79
2016-08-28T01:15:43.865Z,1011.77
2016-08-28T01:16:43.886Z,1011.75
2016-08-28T01:17:43.920Z,1011.76
2016-08-28T01:18:43.940Z,1011.78
2016-08-28T01:19:43.970Z,1011.71
2016-08-28T01:20:44.001Z,1011.76
2016-08-28T01:21:44.022Z,1011.7
2016-08-28T01:22:44.050Z,1011.7
2016-08-28T01:23:44.079Z,1011.71
2016-08-28T01:24:44.111Z,1011.72
2016-08-28T01:25:44.130Z,1011.68
2016-08-28T01:27:44.192Z,1011.66
2016-08-28T01:28:44.214Z,1011.67
2016-08-28T01:29:44.246Z,1011.67
2016-08-28T01:30:44.269Z,1011.64
2016-08-28T01:31:44.301Z,1011.63
2016-08-28T01:32:44.322Z,1011.62
2016-08-28T01:33:44.348Z,1011.61
2016-08-28T01:34:44.375Z,1011.62
2016-08-28T01:35:44.403Z,1011.63
2016-08-28T01:36:44.429Z,1011.6
2016-08-28T01:37:44.457Z,1011.59
2016-08-28T01:38:44.484Z,1011.6
2016-08-28T01:39:44.512Z,1011.57
2016-08-28T01:40:44.540Z,1011.57
2016-08-28T01:41:44.565Z,1011.54
2016-08-28T01:43:44.622Z,1011.55
2016-08-28T01:44:44.648Z,1011.54
2016-08-28T01:45:44.680Z,1011.56
2016-08-28T01:46:44.706Z,1011.58
2016-08-28T01:47:44.726Z,1011.54
2016-08-28T01:48:44.754Z,1011.54
2016-08-28T01:49:44.783Z,1011.5
2016-08-28T01:50:44.809Z,1011.56
2016-08-28T01:51:44.836Z,1011.55
2016-08-28T01:52:44.868Z,1011.54
2016-08-28T01:53:44.890Z,1011.55
2016-08-28T01:54:44.917Z,1011.53
2016-08-28T01:55:44.946Z,1011.52
2016-08-28T01:56:44.972Z,1011.46
2016-08-28T01:57:45.004Z,1011.48
2016-08-28T01:59:45.053Z,1011.42
2016-08-28T02:00:45.091Z,1011.42
2016-08-28T02:01:45.108Z,1011.42
2016-08-28T02:02:45.138Z,1011.4
2016-08-28T02:03:45.162Z,1011.37
2016-08-28T02:04:45.186Z,1011.35
2016-08-28T02:05:45.216Z,1011.35
2016-08-28T02:06:45.242Z,1011.4
2016-08-28T02:07:45.267Z,1011.37
2016-08-28T02:08:45.301Z,1011.3
2016-08-28T02:09:45.327Z,1011.33
2016-08-28T02:10:45.350Z,1011.3
2016-08-28T02:11:45.374Z,1011.3
2016-08-28T02:12:45.402Z,1011.25
2016-08-28T02:13:45.428Z,1011.21
2016-08-28T02:15:45.485Z,1011.23
2016-08-28T02:16:45.516Z,1011.2
2016-08-28T02:17:45.536Z,1011.22
2016-08-28T02:18:45.570Z,1011.25
2016-08-28T02:19:45.590Z,1011.22
2016-08-28T02:20:45.623Z,1011.21
2016-08-28T02:21:45.645Z,1011.22
2016-08-28T02:22:45.669Z,1011.19
2016-08-28T02:23:45.698Z,1011.18
2016-08-28T02:24:45.729Z,1011.24
2016-08-28T02:25:45.751Z,1011.24
2016-08-28T02:26:45.778Z,1011.16
2016-08-28T02:27:45.805Z,1011.18
2016-08-28T02:28:45.838Z,1011.18
2016-08-28T02:30:45.896Z,1011.17
2016-08-28T02:31:45.912Z,1011.13
2016-08-28T02:32:45.947Z,1011.15
2016-08-28T02:33:45.972Z,1011.12
2016-08-28T02:34:45.996Z,1011.11
2016-08-28T02:35:46.026Z,1011.07
2016-08-28T02:36:46.049Z,1011.06
2016-08-28T02:37:46.073Z,1011.05
2016-08-28T02:38:46.100Z,1011.05
2016-08-28T02:39:46.127Z,1011.02
2016-08-28T02:40:46.157Z,1011.06
2016-08-28T02:41:46.188Z,1011.04
2016-08-28T02:42:46.207Z,1011.05
2016-08-28T02:43:46.235Z,1011.09
2016-08-28T02:44:46.271Z,1011.09
2016-08-28T02:45:46.294Z,1011.07
2016-08-28T02:46:46.344Z,1011.09
2016-08-28T02:47:46.344Z,1011.11
2016-08-28T02:48:46.384Z,1011.09
2016-08-28T02:49:46.397Z,1011.14
2016-08-28T02:50:46.423Z,1011.09
2016-08-28T02:51:46.448Z,1011.1
2016-08-28T02:52:46.491Z,1011.08
2016-08-28T02:53:46.504Z,1011.12
2016-08-28T02:54:46.528Z,1011.1
2016-08-28T02:55:46.558Z,1011.11
2016-08-28T02:56:46.590Z,1011.08
2016-08-28T02:57:46.611Z,1011.08
2016-08-28T02:58:46.636Z,1011.09
2016-08-28T02:59:46.665Z,1011.09
2016-08-28T03:00:46.697Z,1011.02
2016-08-28T03:02:46.743Z,1011
2016-08-28T03:03:46.769Z,1011.03
2016-08-28T03:04:46.796Z,1011.15
2016-08-28T03:05:46.822Z,1011.15
2016-08-28T03:06:46.852Z,1011.02
2016-08-28T03:07:46.878Z,1011.08
2016-08-28T03:08:46.903Z,1011.13
2016-08-28T03:09:46.935Z,1011.07
2016-08-28T03:10:46.964Z,1011.08
2016-08-28T03:11:46.982Z,1011.07
2016-08-28T03:12:47.015Z,1011.05
2016-08-28T03:13:47.036Z,1011.08
2016-08-28T03:14:47.069Z,1011.11
2016-08-28T03:15:47.089Z,1011.04
2016-08-28T03:16:47.116Z,1011.03
2016-08-28T03:18:47.171Z,1011.02
2016-08-28T03:19:47.196Z,1010.95
2016-08-28T03:20:47.228Z,1010.98
2016-08-28T03:21:47.249Z,1010.97
2016-08-28T03:22:47.281Z,1010.95
2016-08-28T03:23:47.301Z,1010.91
2016-08-28T03:24:47.328Z,1010.91
2016-08-28T03:25:47.357Z,1010.9
2016-08-28T03:26:47.387Z,1010.89
2016-08-28T03:27:47.414Z,1010.9
2016-08-28T03:28:47.441Z,1010.9
2016-08-28T03:29:47.462Z,1010.84
2016-08-28T03:30:47.488Z,1010.92
2016-08-28T03:31:47.514Z,1010.87
2016-08-28T03:32:47.599Z,1010.86
2016-08-28T03:34:47.600Z,1010.84
2016-08-28T03:35:47.626Z,1010.82
2016-08-28T03:36:47.650Z,1010.82
2016-08-28T03:37:47.673Z,1010.83
2016-08-28T03:38:47.704Z,1010.81
2016-08-28T03:39:47.732Z,1010.81
2016-08-28T03:40:47.754Z,1010.8
2016-08-28T03:41:47.782Z,1010.8
2016-08-28T03:42:47.805Z,1010.79
2016-08-28T03:43:47.835Z,1010.79
2016-08-28T03:44:47.860Z,1010.8
2016-08-28T03:45:47.886Z,1010.78
2016-08-28T03:46:47.919Z,1010.8
2016-08-28T03:47:47.941Z,1010.85
2016-08-28T03:48:47.966Z,1010.84
2016-08-28T03:50:48.019Z,1010.88
2016-08-28T03:51:48.045Z,1010.9
2016-08-28T03:52:48.072Z,1010.93
2016-08-28T03:53:48.099Z,1010.94
2016-08-28T03:54:48.132Z,1010.93
2016-08-28T03:55:48.152Z,1010.92
2016-08-28T03:56:48.185Z,1010.92
2016-08-28T03:57:48.203Z,1010.94
2016-08-28T03:58:48.238Z,1010.91
2016-08-28T03:59:48.258Z,1010.93
2016-08-28T04:00:48.292Z,1010.9
2016-08-28T04:01:48.310Z,1010.85
2016-08-28T04:02:48.339Z,1010.85
2016-08-28T04:03:48.363Z,1010.88
2016-08-28T04:05:48.417Z,1010.9
2016-08-28T04:06:48.448Z,1010.93
2016-08-28T04:07:48.469Z,1010.89
2016-08-28T04:08:48.498Z,1010.92
2016-08-28T04:09:48.528Z,1010.89
2016-08-28T04:10:48.550Z,1010.92
2016-08-28T04:11:48.575Z,1010.88
2016-08-28T04:12:48.603Z,1010.86
2016-08-28T04:13:48.633Z,1010.85
2016-08-28T04:14:48.653Z,1010.88
2016-08-28T04:15:48.682Z,1010.84
2016-08-28T04:16:48.707Z,1010.84
2016-08-28T04:17:48.732Z,1010.79
2016-08-28T04:18:48.759Z,1010.81
2016-08-28T04:19:48.786Z,1010.77
2016-08-28T04:20:48.815Z,1010.74
2016-08-28T04:21:48.837Z,1010.74
2016-08-28T04:22:48.866Z,1010.73
2016-08-28T04:23:48.898Z,1010.7
2016-08-28T04:24:48.916Z,1010.72
2016-08-28T04:25:48.943Z,1010.7
2016-08-28T04:26:48.970Z,1010.71
2016-08-28T04:27:48.996Z,1010.71
2016-08-28T04:28:49.029Z,1010.78
2016-08-28T04:29:49.048Z,1010.74
2016-08-28T04:30:49.075Z,1010.76
2016-08-28T04:31:49.103Z,1010.78
2016-08-28T04:32:49.133Z,1010.81
2016-08-28T04:33:49.156Z,1010.78
2016-08-28T04:34:49.188Z,1010.8
2016-08-28T04:35:49.207Z,1010.82
2016-08-28T04:37:49.260Z,1010.78
2016-08-28T04:38:49.289Z,1010.76
2016-08-28T04:39:49.319Z,1010.8
2016-08-28T04:40:49.339Z,1010.75
2016-08-28T04:41:49.371Z,1010.75
2016-08-28T04:42:49.392Z,1010.76
2016-08-28T04:43:49.418Z,1010.77
2016-08-28T04:44:49.447Z,1010.81
2016-08-28T04:45:49.477Z,1010.8
2016-08-28T04:46:49.496Z,1010.87
2016-08-28T04:47:49.538Z,1010.97
2016-08-28T04:48:49.556Z,1011.04
2016-08-28T04:49:49.583Z,1011.16
2016-08-28T04:50:49.604Z,1011.23
2016-08-28T04:51:49.629Z,1011.21
2016-08-28T04:53:49.683Z,1011.22
2016-08-28T04:54:49.711Z,1011.23
2016-08-28T04:55:49.738Z,1011.23
2016-08-28T04:56:49.770Z,1011.25
2016-08-28T04:57:49.794Z,1011.24
2016-08-28T04:58:49.825Z,1011.27
2016-08-28T04:59:49.908Z,1011.26
2016-08-28T05:00:49.883Z,1011.22
2016-08-28T05:01:49.915Z,1011.2
2016-08-28T05:02:49.938Z,1011.18
2016-08-28T05:03:49.974Z,1011.17
2016-08-28T05:04:50.000Z,1011.14
2016-08-28T05:05:50.030Z,1011.13
2016-08-28T05:06:50.064Z,1011.15
2016-08-28T05:07:50.096Z,1011.17
2016-08-28T05:09:50.155Z,1011.11
2016-08-28T05:10:50.184Z,1011.06
2016-08-28T05:11:50.219Z,1011.01
2016-08-28T05:12:50.244Z,1010.97
2016-08-28T05:13:50.277Z,1010.96
2016-08-28T05:14:50.308Z,1010.89
2016-08-28T05:15:50.340Z,1010.92
2016-08-28T05:16:50.371Z,1010.88
2016-08-28T05:17:50.407Z,1010.83
2016-08-28T05:18:50.438Z,1010.79
2016-08-28T05:19:50.475Z,1010.77
2016-08-28T05:20:50.501Z,1010.73
2016-08-28T05:21:50.534Z,1010.7
2016-08-28T05:22:50.571Z,1010.68
2016-08-28T05:23:50.595Z,1010.64
2016-08-28T05:25:50.658Z,1010.68
2016-08-28T05:26:50.689Z,1010.67
2016-08-28T05:27:50.726Z,1010.64
2016-08-28T05:28:50.751Z,1010.63
2016-08-28T05:29:50.782Z,1010.59
2016-08-28T05:30:50.814Z,1010.57
2016-08-28T05:31:50.842Z,1010.54
2016-08-28T05:32:50.879Z,1010.6
2016-08-28T05:33:50.904Z,1010.57
2016-08-28T05:34:50.934Z,1010.53
2016-08-28T05:35:50.968Z,1010.58
2016-08-28T05:36:50.993Z,1010.52
2016-08-28T05:37:51.021Z,1010.68
2016-08-28T05:38:51.050Z,1010.82
2016-08-28T05:40:51.116Z,1010.58
2016-08-28T05:41:51.138Z,1010.52
2016-08-28T05:42:51.168Z,1010.53
2016-08-28T05:43:51.201Z,1010.53
2016-08-28T05:44:51.236Z,1010.45
2016-08-28T05:45:51.259Z,1010.48
2016-08-28T05:46:51.286Z,1010.46
2016-08-28T05:47:51.317Z,1010.5
2016-08-28T05:48:51.351Z,1010.52
2016-08-28T05:49:51.376Z,1010.63
2016-08-28T05:50:51.405Z,1010.7
2016-08-28T05:51:51.437Z,1010.86
2016-08-28T05:52:51.471Z,1010.98
2016-08-28T05:53:51.497Z,1010.96
2016-08-28T05:54:51.532Z,1010.97
2016-08-28T05:55:51.557Z,1010.98
2016-08-28T05:56:51.588Z,1011
2016-08-28T05:57:51.622Z,1011
2016-08-28T05:58:51.654Z,1010.97
2016-08-28T05:59:51.683Z,1011
2016-08-28T06:00:51.718Z,1011.11
2016-08-28T06:01:51.751Z,1011.46
2016-08-28T06:02:51.783Z,1011.64
2016-08-28T06:03:51.816Z,1011.77
2016-08-28T06:04:51.855Z,1011.82
2016-08-28T06:05:51.890Z,1011.79
2016-08-28T06:06:51.924Z,1011.91
2016-08-28T06:07:51.952Z,1011.95
2016-08-28T06:08:51.992Z,1011.92
2016-08-28T06:09:52.026Z,1011.99
2016-08-28T06:10:52.058Z,1012.15
2016-08-28T06:12:52.126Z,1012.19
2016-08-28T06:13:52.167Z,1012.26
2016-08-28T06:14:52.196Z,1012.2
2016-08-28T06:15:52.231Z,1012.28
2016-08-28T06:16:52.272Z,1012.26
2016-08-28T06:17:52.302Z,1012.28
2016-08-28T06:18:52.338Z,1012.34
2016-08-28T06:19:52.374Z,1012.27
2016-08-28T06:20:52.410Z,1012.25
2016-08-28T06:21:52.450Z,1012.23
2016-08-28T06:22:52.488Z,1012.23
2016-08-28T06:23:52.517Z,1012.21
2016-08-28T06:24:52.560Z,1012.12
2016-08-28T06:25:52.591Z,1012.07
2016-08-28T06:26:52.626Z,1012.1
2016-08-28T06:28:52.699Z,1012.12
2016-08-28T06:29:52.735Z,1012.05
2016-08-28T06:30:52.774Z,1012.1
2016-08-28T06:31:52.815Z,1012.17
2016-08-28T06:32:52.847Z,1012.08
2016-08-28T06:33:52.887Z,1012.09
2016-08-28T06:34:52.925Z,1012.08
2016-08-28T06:35:52.957Z,1012.03
2016-08-28T06:36:52.993Z,1012.01
2016-08-28T06:37:53.030Z,1012.04
2016-08-28T06:38:53.065Z,1012.04
2016-08-28T06:39:53.105Z,1011.99
2016-08-28T06:40:53.139Z,1012.01
2016-08-28T06:41:53.176Z,1011.94
2016-08-28T06:42:53.214Z,1011.97
2016-08-28T06:44:53.287Z,1012.02
2016-08-28T06:45:53.325Z,1011.95
2016-08-28T06:46:53.363Z,1011.96
2016-08-28T06:47:53.399Z,1011.97
2016-08-28T06:48:53.439Z,1011.93
2016-08-28T06:49:53.481Z,1011.86
2016-08-28T06:50:53.513Z,1011.78
2016-08-28T06:51:53.548Z,1011.76
2016-08-28T06:52:53.593Z,1011.77
2016-08-28T06:53:53.630Z,1011.7
2016-08-28T06:54:53.667Z,1011.73
2016-08-28T06:55:53.698Z,1011.68
2016-08-28T06:56:53.736Z,1011.67
2016-08-28T06:57:53.779Z,1011.65
2016-08-28T06:58:53.810Z,1011.63
2016-08-28T07:00:53.885Z,1011.62
2016-08-28T07:01:53.923Z,1011.61
2016-08-28T07:02:53.959Z,1011.68
2016-08-28T07:03:53.998Z,1011.67
2016-08-28T07:04:54.042Z,1011.6
2016-08-28T07:05:54.072Z,1011.61
2016-08-28T07:06:54.160Z,1011.57
2016-08-28T07:07:54.149Z,1011.52
2016-08-28T07:08:54.191Z,1011.56
2016-08-28T07:09:54.225Z,1011.53
2016-08-28T07:10:54.260Z,1011.5
2016-08-28T07:11:54.305Z,1011.47
2016-08-28T07:12:54.337Z,1011.44
2016-08-28T07:13:54.376Z,1011.33
2016-08-28T07:15:54.450Z,1011.32
2016-08-28T07:16:54.490Z,1011.29
2016-08-28T07:17:54.527Z,1011.26
2016-08-28T07:18:54.565Z,1011.23
2016-08-28T07:19:54.604Z,1011.22
2016-08-28T07:20:54.647Z,1011.19
2016-08-28T07:21:54.679Z,1011.18
2016-08-28T07:22:54.724Z,1011.12
2016-08-28T07:23:54.756Z,1011.17
2016-08-28T07:24:54.800Z,1011.15
2016-08-28T07:25:54.832Z,1011.14
2016-08-28T07:26:54.877Z,1011.16
2016-08-28T07:27:54.909Z,1011.04
2016-08-28T07:28:54.947Z,1011.02
2016-08-28T07:29:54.985Z,1010.98
2016-08-28T07:30:55.030Z,1010.95
2016-08-28T07:31:55.065Z,1010.92
2016-08-28T07:32:55.105Z,1010.92
2016-08-28T07:33:55.140Z,1010.93
2016-08-28T07:34:55.184Z,1010.98
2016-08-28T07:35:55.223Z,1011.02
2016-08-28T07:36:55.257Z,1011.02
2016-08-28T07:37:55.294Z,1011.03
2016-08-28T07:38:55.331Z,1011.01
2016-08-28T07:39:55.370Z,1011.01
2016-08-28T07:40:55.413Z,1010.94
2016-08-28T07:41:55.450Z,1010.95
2016-08-28T07:42:55.486Z,1010.96
2016-08-28T07:43:55.530Z,1010.95
2016-08-28T07:44:55.564Z,1010.93
2016-08-28T07:45:55.601Z,1010.94
2016-08-28T07:47:55.681Z,1010.9
2016-08-28T07:48:55.718Z,1010.93
2016-08-28T07:49:55.756Z,1010.87
2016-08-28T07:50:55.794Z,1010.82
2016-08-28T07:51:55.834Z,1010.78
2016-08-28T07:52:55.871Z,1010.71
2016-08-28T07:53:55.915Z,1010.67
2016-08-28T07:54:55.948Z,1010.64
2016-08-28T07:55:55.986Z,1010.67
2016-08-28T07:56:56.023Z,1010.64
2016-08-28T07:57:56.063Z,1010.68
2016-08-28T07:58:56.107Z,1010.67
2016-08-28T07:59:56.142Z,1010.65
2016-08-28T08:00:56.178Z,1010.62
2016-08-28T08:01:56.216Z,1010.6
2016-08-28T08:03:56.299Z,1010.62
2016-08-28T08:04:56.336Z,1010.57
2016-08-28T08:05:56.369Z,1010.54
2016-08-28T08:06:56.410Z,1010.52
2016-08-28T08:07:56.451Z,1010.41
2016-08-28T08:08:56.485Z,1010.32
2016-08-28T08:09:56.543Z,1010.29
2016-08-28T08:10:56.560Z,1010.35
2016-08-28T08:11:56.600Z,1010.32
2016-08-28T08:12:56.642Z,1010.36
2016-08-28T08:13:56.674Z,1010.38
2016-08-28T08:14:56.719Z,1010.37
2016-08-28T08:15:56.751Z,1010.38
2016-08-28T08:16:56.788Z,1010.38
2016-08-28T08:17:56.827Z,1010.36
2016-08-28T08:19:56.900Z,1010.36
2016-08-28T08:20:56.939Z,1010.33
2016-08-28T08:21:56.977Z,1010.4
2016-08-28T08:22:57.019Z,1010.38
2016-08-28T08:23:57.054Z,1010.39
2016-08-28T08:24:57.093Z,1010.41
2016-08-28T08:25:57.127Z,1010.45
2016-08-28T08:26:57.165Z,1010.53
2016-08-28T08:27:57.203Z,1010.57
2016-08-28T08:28:57.246Z,1010.58
2016-08-28T08:29:57.277Z,1010.51
2016-08-28T08:30:57.317Z,1010.47
2016-08-28T08:31:57.359Z,1010.44
2016-08-28T08:32:57.396Z,1010.34
2016-08-28T08:33:57.427Z,1010.3
2016-08-28T08:35:57.508Z,1010.06
2016-08-28T08:36:57.542Z,1010
2016-08-28T08:37:57.578Z,1009.96
2016-08-28T08:38:57.615Z,1009.94
2016-08-28T08:39:57.658Z,1009.94
2016-08-28T08:40:57.695Z,1009.97
2016-08-28T08:41:57.727Z,1009.96
2016-08-28T08:42:57.771Z,1010.02
2016-08-28T08:43:57.803Z,1010.05
2016-08-28T08:44:57.844Z,1010.08
2016-08-28T08:45:57.876Z,1010.08
2016-08-28T08:46:57.913Z,1010.08
2016-08-28T08:47:57.951Z,1010.06
2016-08-28T08:48:57.989Z,1010.05
2016-08-28T08:50:58.071Z,1009.99
2016-08-28T08:51:58.102Z,1009.95
2016-08-28T08:52:58.139Z,1009.93
2016-08-28T08:53:58.175Z,1009.91
2016-08-28T08:54:58.220Z,1009.93
2016-08-28T08:55:58.253Z,1009.88
2016-08-28T08:56:58.294Z,1009.95
2016-08-28T08:57:58.325Z,1009.96
2016-08-28T08:58:58.363Z,1009.98
2016-08-28T08:59:58.398Z,1009.98
2016-08-28T09:00:58.438Z,1010
2016-08-28T09:01:58.481Z,1010.04
2016-08-28T09:02:58.513Z,1010.03
2016-08-28T09:03:58.554Z,1010.02
2016-08-28T09:04:58.585Z,1010
2016-08-28T09:05:58.622Z,1009.98
2016-08-28T09:06:58.661Z,1009.96
2016-08-28T09:07:58.701Z,1009.91
2016-08-28T09:08:58.733Z,1009.91
2016-08-28T09:09:58.769Z,1009.86
2016-08-28T09:10:58.812Z,1009.85
2016-08-28T09:11:58.850Z,1009.89
2016-08-28T09:12:58.886Z,1009.82
2016-08-28T09:13:58.969Z,1009.83
2016-08-28T09:14:58.954Z,1009.82
2016-08-28T09:15:58.993Z,1009.82
2016-08-28T09:16:59.029Z,1009.76
2016-08-28T09:17:59.063Z,1009.78
2016-08-28T09:18:59.100Z,1009.73
2016-08-28T09:19:59.139Z,1009.71
2016-08-28T09:20:59.174Z,1009.7
2016-08-28T09:22:59.248Z,1009.67
2016-08-28T09:23:59.291Z,1009.67
2016-08-28T09:24:59.322Z,1009.68
2016-08-28T09:25:59.357Z,1009.67
2016-08-28T09:26:59.394Z,1009.65
2016-08-28T09:27:59.437Z,1009.65
2016-08-28T09:28:59.473Z,1009.65
2016-08-28T09:29:59.505Z,1009.57
2016-08-28T09:30:59.543Z,1009.58
2016-08-28T09:31:59.576Z,1009.56
2016-08-28T09:32:59.613Z,1009.55
2016-08-28T09:33:59.651Z,1009.54
2016-08-28T09:34:59.692Z,1009.48
2016-08-28T09:35:59.722Z,1009.47
2016-08-28T09:36:59.758Z,1009.5
2016-08-28T09:38:59.835Z,1009.51
2016-08-28T09:39:59.875Z,1009.49
2016-08-28T09:40:59.907Z,1009.54
2016-08-28T09:41:59.940Z,1009.58
2016-08-28T09:42:59.977Z,1009.53
2016-08-28T09:44:00.016Z,1009.53
2016-08-28T09:45:00.051Z,1009.55
2016-08-28T09:46:00.098Z,1009.48
2016-08-28T09:47:00.122Z,1009.47
2016-08-28T09:48:00.159Z,1009.44
2016-08-28T09:49:00.197Z,1009.41
2016-08-28T09:50:00.232Z,1009.41
2016-08-28T09:51:00.267Z,1009.37
2016-08-28T09:52:00.304Z,1009.32
2016-08-28T09:53:00.340Z,1009.31
2016-08-28T09:55:00.412Z,1009.22
2016-08-28T09:56:00.450Z,1009.23
2016-08-28T09:57:00.487Z,1009.19
2016-08-28T09:58:00.527Z,1009.16
2016-08-28T09:59:00.558Z,1009.21
2016-08-28T10:00:00.596Z,1009.22
2016-08-28T10:01:00.636Z,1009.27
2016-08-28T10:02:00.667Z,1009.27
2016-08-28T10:03:00.702Z,1009.25
2016-08-28T10:04:00.738Z,1009.23
2016-08-28T10:05:00.773Z,1009.17
2016-08-28T10:06:00.810Z,1009.18
2016-08-28T10:07:00.846Z,1009.21
2016-08-28T10:08:00.882Z,1009.17
2016-08-28T10:09:00.924Z,1009.15
2016-08-28T10:11:00.996Z,1009.06
2016-08-28T10:12:01.026Z,1009.04
2016-08-28T10:13:01.063Z,1008.99
2016-08-28T10:14:01.097Z,1009.02
2016-08-28T10:15:01.134Z,1009.04
2016-08-28T10:16:01.218Z,1009.05
2016-08-28T10:17:01.207Z,1009.04
2016-08-28T10:18:01.247Z,1009.01
2016-08-28T10:19:01.279Z,1009.08
2016-08-28T10:20:01.312Z,1009.01
2016-08-28T10:21:01.353Z,1008.98
2016-08-28T10:22:01.390Z,1008.96
2016-08-28T10:23:01.425Z,1008.97
2016-08-28T10:24:01.458Z,1008.93
2016-08-28T10:26:01.529Z,1008.9
2016-08-28T10:27:01.562Z,1008.9
2016-08-28T10:28:01.604Z,1008.87
2016-08-28T10:29:01.634Z,1008.88
2016-08-28T10:30:01.676Z,1008.86
2016-08-28T10:31:01.704Z,1008.86
2016-08-28T10:32:01.746Z,1008.85
2016-08-28T10:33:01.777Z,1008.89
2016-08-28T10:34:01.810Z,1008.85
2016-08-28T10:35:01.847Z,1008.82
2016-08-28T10:36:01.887Z,1008.82
2016-08-28T10:37:01.923Z,1008.81
2016-08-28T10:38:01.950Z,1008.85
2016-08-28T10:39:01.993Z,1008.84
2016-08-28T10:40:02.022Z,1008.85
2016-08-28T10:41:02.056Z,1008.85
2016-08-28T10:42:02.097Z,1008.9
2016-08-28T10:43:02.129Z,1008.88
2016-08-28T10:44:02.171Z,1008.81
2016-08-28T10:45:02.199Z,1008.75
2016-08-28T10:46:02.231Z,1008.81
2016-08-28T10:47:02.273Z,1008.81
2016-08-28T10:48:02.308Z,1008.85
2016-08-28T10:49:02.335Z,1008.82
2016-08-28T10:50:02.373Z,1008.85
2016-08-28T10:51:02.413Z,1008.83
2016-08-28T10:52:02.449Z,1008.79
2016-08-28T10:53:02.483Z,1008.77
2016-08-28T10:54:02.514Z,1008.79
2016-08-28T10:55:02.553Z,1008.75
2016-08-28T10:56:02.582Z,1008.78
2016-08-28T10:58:02.657Z,1008.75
2016-08-28T10:59:02.688Z,1008.72
2016-08-28T11:00:02.720Z,1008.74
2016-08-28T11:01:02.758Z,1008.71
2016-08-28T11:02:02.790Z,1008.7
2016-08-28T11:03:02.824Z,1008.73
2016-08-28T11:04:02.866Z,1008.68
2016-08-28T11:05:02.899Z,1008.7
2016-08-28T11:06:02.930Z,1008.7
2016-08-28T11:07:02.964Z,1008.65
2016-08-28T11:08:03.004Z,1008.69
2016-08-28T11:09:03.032Z,1008.66
2016-08-28T11:10:03.074Z,1008.65
2016-08-28T11:11:03.103Z,1008.67
2016-08-28T11:12:03.136Z,1008.67
2016-08-28T11:14:03.207Z,1008.72
2016-08-28T11:15:03.246Z,1008.73
2016-08-28T11:16:03.274Z,1008.7
2016-08-28T11:17:03.311Z,1008.71
2016-08-28T11:18:03.349Z,1008.67
2016-08-28T11:19:03.379Z,1008.69
2016-08-28T11:20:03.412Z,1008.68
2016-08-28T11:21:03.453Z,1008.66
2016-08-28T11:22:03.482Z,1008.65
2016-08-28T11:23:03.518Z,1008.58
2016-08-28T11:24:03.550Z,1008.59
2016-08-28T11:25:03.585Z,1008.62
2016-08-28T11:26:03.621Z,1008.56
2016-08-28T11:27:03.659Z,1008.58
2016-08-28T11:28:03.694Z,1008.53
2016-08-28T11:30:03.756Z,1008.54
2016-08-28T11:31:03.796Z,1008.54
2016-08-28T11:32:03.825Z,1008.58
2016-08-28T11:33:03.865Z,1008.54
2016-08-28T11:34:03.894Z,1008.51
2016-08-28T11:35:03.928Z,1008.5
2016-08-28T11:36:03.966Z,1008.46
2016-08-28T11:37:04.005Z,1008.47
2016-08-28T11:38:04.031Z,1008.45
2016-08-28T11:39:04.069Z,1008.44
2016-08-28T11:40:04.106Z,1008.44
2016-08-28T11:41:04.136Z,1008.42
2016-08-28T11:42:04.175Z,1008.41
2016-08-28T11:43:04.203Z,1008.41
2016-08-28T11:44:04.247Z,1008.38
2016-08-28T11:46:04.319Z,1008.36
2016-08-28T11:47:04.343Z,1008.38
2016-08-28T11:48:04.376Z,1008.33
2016-08-28T11:49:04.416Z,1008.3
2016-08-28T11:50:04.444Z,1008.32
2016-08-28T11:51:04.483Z,1008.28
2016-08-28T11:52:04.512Z,1008.27
2016-08-28T11:53:04.546Z,1008.25
2016-08-28T11:54:04.583Z,1008.25
2016-08-28T11:55:04.615Z,1008.26
2016-08-28T11:56:04.650Z,1008.21
2016-08-28T11:57:04.683Z,1008.18
2016-08-28T11:58:04.718Z,1008.2
2016-08-28T11:59:04.753Z,1008.16
2016-08-28T12:01:04.829Z,1008.18
2016-08-28T12:02:04.855Z,1008.17
2016-08-28T12:03:04.890Z,1008.16
2016-08-28T12:04:04.924Z,1008.14
2016-08-28T12:05:04.961Z,1008.11
2016-08-28T12:06:04.993Z,1008.12
2016-08-28T12:07:05.028Z,1008.09
2016-08-28T12:08:05.069Z,1008.12
2016-08-28T12:09:05.098Z,1008.07
2016-08-28T12:10:05.130Z,1008.03
2016-08-28T12:11:05.165Z,1008.06
2016-08-28T12:12:05.201Z,1008.03
2016-08-28T12:13:05.235Z,1008.01
2016-08-28T12:14:05.274Z,1008.04
2016-08-28T12:15:05.308Z,1007.97
2016-08-28T12:16:05.339Z,1007.97
2016-08-28T12:17:05.370Z,1008
2016-08-28T12:18:05.404Z,1007.99
2016-08-28T12:19:05.445Z,1007.98
2016-08-28T12:20:05.522Z,1007.94
2016-08-28T12:21:05.557Z,1007.93
2016-08-28T12:22:05.547Z,1007.94
2016-08-28T12:23:05.575Z,1007.9
2016-08-28T12:24:05.608Z,1007.93
2016-08-28T12:25:05.643Z,1007.9
2016-08-28T12:26:05.678Z,1007.87
2016-08-28T12:27:05.718Z,1007.89
2016-08-28T12:28:05.746Z,1007.9
2016-08-28T12:29:05.780Z,1007.86
2016-08-28T12:30:05.814Z,1007.89
2016-08-28T12:31:05.850Z,1007.85
2016-08-28T12:33:05.918Z,1007.89
2016-08-28T12:34:05.958Z,1007.86
2016-08-28T12:35:05.986Z,1007.82
2016-08-28T12:36:06.019Z,1007.81
2016-08-28T12:37:06.060Z,1007.82
2016-08-28T12:38:06.090Z,1007.8
2016-08-28T12:39:06.128Z,1007.79
2016-08-28T12:40:06.158Z,1007.8
2016-08-28T12:41:06.197Z,1007.78
2016-08-28T12:42:06.226Z,1007.73
2016-08-28T12:43:06.264Z,1007.73
2016-08-28T12:44:06.292Z,1007.74
2016-08-28T12:45:06.333Z,1007.71
2016-08-28T12:46:06.360Z,1007.72
2016-08-28T12:47:06.397Z,1007.68
2016-08-28T12:49:06.466Z,1007.64
2016-08-28T12:50:06.511Z,1007.65